KPMH/PMH METAR and TAF weather

Enter ICAO airport designator
Station Type Date Time Source
KPMH METAR 2020/01/18 15:36 UTC NOAA

KPMH 181536Z AUTO 20003KT 4SM RA SCT041 BKN060 OVC085 02/02 A2999 RMK AO2 P0005 T00210018


Station Type Date Time Source
KPMH Decoded METAR 2020/01/18 15:36 UTC NOAA

Station name not available
Jan 18, 2020 - 10:36 AM EST / 2020.01.18 1536 UTC
Wind: from the SSW (200 degrees) at 3 MPH (3 KT):0
Visibility: 4 mile(s):0
Sky conditions: overcast
Weather: rain
Precipitation last hour: 0.05 inches
Temperature: 35.8 F (2.1 C)
Dew Point: 35.2 F (1.8 C)
Relative Humidity: 97%
Pressure (altimeter): 29.99 in. Hg (1015 hPa)
ob: KPMH 181536Z AUTO 20003KT 4SM RA SCT041 BKN060 OVC085 02/02 A2999 RMK AO2 P0005 T00210018
cycle: 15

Station Type Date Time Source
KPMH TAF UTC NOAA

Error!

Example: see airport list